X  Luk Metar data     EKYT Aalborg Airport
Temperatur
4°C Temperatur
3°C Dugpunkt
93% Fugtighed



Vind
8 M/S
17 MPT
27 KM/T
15 KNOB



200°
SSV
Nuværende forhold

Let  Støvregn Let Støvregn
Tryk 1015.92 (hPa) - 30 (inHg)
Sigt 6.2 (mil) - 10 (km)
Lufthavn
Lufthavnskode EKYT

Lokation: Aalborg Airport
Afstand: 54 (km)

Metar:
EKYT 282150Z AUTO 20015KT 9999 -DZ FEW013/// SCT020/// BKN032/// 04/03 Q1016

Tid: 28-01-2022 22:50 CET